sensor_id;sensor_type;location;lat;lon;timestamp;P1;durP1;ratioP1;P2;durP2;ratioP2
45388;SDS011;31127;52.078;4.370;2023-04-01T00:03:27;86.50;;;14.15;;
45388;SDS011;31127;52.078;4.370;2023-04-01T00:08:43;74.85;;;11.52;;
45388;SDS011;31127;52.078;4.370;2023-04-01T00:13:39;56.22;;;11.65;;
45388;SDS011;31127;52.078;4.370;2023-04-01T00:18:35;54.17;;;9.82;;
45388;SDS011;31127;52.078;4.370;2023-04-01T00:23:50;80.10;;;11.85;;
45388;SDS011;31127;52.078;4.370;2023-04-01T00:28:46;91.07;;;12.75;;
45388;SDS011;31127;52.078;4.370;2023-04-01T00:33:42;73.25;;;12.02;;
45388;SDS011;31127;52.078;4.370;2023-04-01T00:38:41;80.43;;;14.48;;
45388;SDS011;31127;52.078;4.370;2023-04-01T00:43:37;127.72;;;17.52;;
45388;SDS011;31127;52.078;4.370;2023-04-01T00:48:33;126.18;;;16.70;;
45388;SDS011;31127;52.078;4.370;2023-04-01T00:53:31;110.47;;;13.65;;
45388;SDS011;31127;52.078;4.370;2023-04-01T00:58:27;89.97;;;15.40;;
45388;SDS011;31127;52.078;4.370;2023-04-01T01:03:24;92.70;;;15.55;;
45388;SDS011;31127;52.078;4.370;2023-04-01T01:08:26;102.93;;;14.15;;
45388;SDS011;31127;52.078;4.370;2023-04-01T01:13:31;69.32;;;9.52;;
45388;SDS011;31127;52.078;4.370;2023-04-01T01:38:33;65.57;;;8.70;;
45388;SDS011;31127;52.078;4.370;2023-04-01T01:43:33;43.17;;;8.57;;
45388;SDS011;31127;52.078;4.370;2023-04-01T01:48:31;45.40;;;6.75;;
45388;SDS011;31127;52.078;4.370;2023-04-01T01:53:28;45.90;;;8.20;;
45388;SDS011;31127;52.078;4.370;2023-04-01T01:58:45;80.25;;;11.77;;
45388;SDS011;31127;52.078;4.370;2023-04-01T02:03:42;65.15;;;11.65;;
45388;SDS011;31127;52.078;4.370;2023-04-01T02:08:42;49.10;;;10.43;;
45388;SDS011;31127;52.078;4.370;2023-04-01T02:13:43;49.00;;;8.68;;
45388;SDS011;31127;52.078;4.370;2023-04-01T02:18:42;60.33;;;12.88;;
45388;SDS011;31127;52.078;4.370;2023-04-01T02:23:38;80.72;;;15.73;;
45388;SDS011;31127;52.078;4.370;2023-04-01T02:28:34;52.75;;;13.07;;
45388;SDS011;31127;52.078;4.370;2023-04-01T02:33:32;59.03;;;13.00;;
45388;SDS011;31127;52.078;4.370;2023-04-01T02:38:48;63.83;;;17.38;;
45388;SDS011;31127;52.078;4.370;2023-04-01T02:43:44;58.13;;;17.45;;
45388;SDS011;31127;52.078;4.370;2023-04-01T02:49:00;57.00;;;14.77;;
45388;SDS011;31127;52.078;4.370;2023-04-01T02:53:56;63.65;;;17.40;;
45388;SDS011;31127;52.078;4.370;2023-04-01T02:59:12;75.03;;;19.95;;
45388;SDS011;31127;52.078;4.370;2023-04-01T03:04:16;96.43;;;22.23;;
45388;SDS011;31127;52.078;4.370;2023-04-01T03:09:11;95.97;;;22.13;;
45388;SDS011;31127;52.078;4.370;2023-04-01T03:14:06;85.28;;;21.40;;
45388;SDS011;31127;52.078;4.370;2023-04-01T03:19:02;82.10;;;19.88;;
45388;SDS011;31127;52.078;4.370;2023-04-01T03:23:58;82.50;;;21.13;;
45388;SDS011;31127;52.078;4.370;2023-04-01T03:28:53;126.05;;;21.55;;
45388;SDS011;31127;52.078;4.370;2023-04-01T03:33:50;140.50;;;22.95;;
45388;SDS011;31127;52.078;4.370;2023-04-01T03:39:05;114.70;;;24.83;;
45388;SDS011;31127;52.078;4.370;2023-04-01T03:44:08;94.30;;;21.88;;
45388;SDS011;31127;52.078;4.370;2023-04-01T03:49:10;78.68;;;20.42;;
45388;SDS011;31127;52.078;4.370;2023-04-01T03:54:15;72.75;;;20.45;;
45388;SDS011;31127;52.078;4.370;2023-04-01T03:59:13;63.20;;;18.42;;
45388;SDS011;31127;52.078;4.370;2023-04-01T04:04:29;57.90;;;16.90;;
45388;SDS011;31127;52.078;4.370;2023-04-01T04:09:25;67.80;;;18.92;;
45388;SDS011;31127;52.078;4.370;2023-04-01T04:14:20;70.43;;;20.00;;
45388;SDS011;31127;52.078;4.370;2023-04-01T04:19:17;69.88;;;18.83;;
45388;SDS011;31127;52.078;4.370;2023-04-01T04:24:12;62.25;;;18.77;;
45388;SDS011;31127;52.078;4.370;2023-04-01T04:29:27;71.38;;;18.10;;
45388;SDS011;31127;52.078;4.370;2023-04-01T04:34:23;59.90;;;16.42;;
45388;SDS011;31127;52.078;4.370;2023-04-01T04:39:19;60.33;;;18.85;;
45388;SDS011;31127;52.078;4.370;2023-04-01T04:44:15;66.07;;;19.38;;
45388;SDS011;31127;52.078;4.370;2023-04-01T04:49:11;62.45;;;16.45;;
45388;SDS011;31127;52.078;4.370;2023-04-01T04:54:07;65.70;;;20.23;;
45388;SDS011;31127;52.078;4.370;2023-04-01T04:59:16;94.22;;;20.40;;
45388;SDS011;31127;52.078;4.370;2023-04-01T05:04:21;65.10;;;19.42;;
45388;SDS011;31127;52.078;4.370;2023-04-01T05:09:16;91.80;;;19.55;;
45388;SDS011;31127;52.078;4.370;2023-04-01T05:14:13;72.32;;;18.95;;
45388;SDS011;31127;52.078;4.370;2023-04-01T05:19:36;62.50;;;16.83;;
45388;SDS011;31127;52.078;4.370;2023-04-01T05:24:32;61.20;;;18.63;;
45388;SDS011;31127;52.078;4.370;2023-04-01T05:29:27;61.63;;;16.48;;
45388;SDS011;31127;52.078;4.370;2023-04-01T05:35:06;64.88;;;16.35;;
45388;SDS011;31127;52.078;4.370;2023-04-01T05:40:02;73.93;;;15.20;;
45388;SDS011;31127;52.078;4.370;2023-04-01T05:44:58;91.32;;;21.02;;
45388;SDS011;31127;52.078;4.370;2023-04-01T05:50:20;92.30;;;21.58;;
45388;SDS011;31127;52.078;4.370;2023-04-01T05:55:15;92.47;;;20.65;;
45388;SDS011;31127;52.078;4.370;2023-04-01T06:00:11;78.43;;;19.98;;
45388;SDS011;31127;52.078;4.370;2023-04-01T06:05:12;76.15;;;17.63;;
45388;SDS011;31127;52.078;4.370;2023-04-01T06:10:15;77.95;;;16.00;;
45388;SDS011;31127;52.078;4.370;2023-04-01T06:25:30;60.60;;;16.77;;
45388;SDS011;31127;52.078;4.370;2023-04-01T06:30:37;51.97;;;14.80;;
45388;SDS011;31127;52.078;4.370;2023-04-01T06:35:56;38.00;;;12.85;;
45388;SDS011;31127;52.078;4.370;2023-04-01T06:41:04;37.65;;;10.25;;
45388;SDS011;31127;52.078;4.370;2023-04-01T06:52:06;32.38;;;9.95;;
45388;SDS011;31127;52.078;4.370;2023-04-01T07:02:22;16.73;;;7.05;;
45388;SDS011;31127;52.078;4.370;2023-04-01T07:07:35;17.38;;;6.82;;
45388;SDS011;31127;52.078;4.370;2023-04-01T07:12:46;16.83;;;6.25;;
45388;SDS011;31127;52.078;4.370;2023-04-01T07:18:02;33.17;;;8.32;;
45388;SDS011;31127;52.078;4.370;2023-04-01T07:23:06;56.00;;;20.58;;
45388;SDS011;31127;52.078;4.370;2023-04-01T07:28:15;53.28;;;13.70;;
45388;SDS011;31127;52.078;4.370;2023-04-01T07:38:40;64.47;;;14.05;;
45388;SDS011;31127;52.078;4.370;2023-04-01T07:49:56;76.40;;;14.05;;
45388;SDS011;31127;52.078;4.370;2023-04-01T07:54:56;87.60;;;17.95;;
45388;SDS011;31127;52.078;4.370;2023-04-01T07:59:58;87.35;;;16.27;;
45388;SDS011;31127;52.078;4.370;2023-04-01T08:21:32;69.35;;;17.52;;
45388;SDS011;31127;52.078;4.370;2023-04-01T08:26:35;64.50;;;16.55;;
45388;SDS011;31127;52.078;4.370;2023-04-01T08:36:34;39.38;;;15.30;;
45388;SDS011;31127;52.078;4.370;2023-04-01T09:34:00;53.80;;;13.57;;
45388;SDS011;31127;52.078;4.370;2023-04-01T09:44:31;380.40;;;35.03;;
45388;SDS011;31127;52.078;4.370;2023-04-01T09:54:53;46.63;;;15.77;;
45388;SDS011;31127;52.078;4.370;2023-04-01T10:30:45;44.35;;;15.15;;
45388;SDS011;31127;52.078;4.370;2023-04-01T10:41:11;46.65;;;16.60;;
45388;SDS011;31127;52.078;4.370;2023-04-01T11:18:59;56.97;;;18.13;;
45388;SDS011;31127;52.078;4.370;2023-04-01T11:24:15;50.47;;;15.70;;
45388;SDS011;31127;52.078;4.370;2023-04-01T11:39:19;49.08;;;16.63;;
45388;SDS011;31127;52.078;4.370;2023-04-01T11:45:12;47.45;;;15.20;;
45388;SDS011;31127;52.078;4.370;2023-04-01T11:55:32;34.38;;;14.40;;
45388;SDS011;31127;52.078;4.370;2023-04-01T12:00:34;46.88;;;13.93;;
45388;SDS011;31127;52.078;4.370;2023-04-01T12:31:07;31.98;;;12.32;;
45388;SDS011;31127;52.078;4.370;2023-04-01T12:41:14;30.65;;;11.75;;
45388;SDS011;31127;52.078;4.370;2023-04-01T12:56:14;29.77;;;11.95;;
45388;SDS011;31127;52.078;4.370;2023-04-01T13:06:22;27.48;;;10.13;;
45388;SDS011;31127;52.078;4.370;2023-04-01T13:16:48;33.83;;;7.85;;
45388;SDS011;31127;52.078;4.370;2023-04-01T13:21:56;21.00;;;6.80;;
45388;SDS011;31127;52.078;4.370;2023-04-01T13:26:56;21.48;;;6.60;;
45388;SDS011;31127;52.078;4.370;2023-04-01T13:32:10;17.85;;;5.13;;
45388;SDS011;31127;52.078;4.370;2023-04-01T13:37:13;19.63;;;5.22;;
45388;SDS011;31127;52.078;4.370;2023-04-01T13:42:37;13.35;;;4.75;;
45388;SDS011;31127;52.078;4.370;2023-04-01T14:19:11;24.52;;;5.35;;
45388;SDS011;31127;52.078;4.370;2023-04-01T14:50:19;20.90;;;5.43;;
45388;SDS011;31127;52.078;4.370;2023-04-01T14:55:20;23.00;;;6.60;;
45388;SDS011;31127;52.078;4.370;2023-04-01T15:00:19;24.40;;;5.03;;
45388;SDS011;31127;52.078;4.370;2023-04-01T15:05:39;18.10;;;4.68;;
45388;SDS011;31127;52.078;4.370;2023-04-01T15:26:32;26.17;;;7.30;;
45388;SDS011;31127;52.078;4.370;2023-04-01T15:52:39;26.55;;;4.53;;
45388;SDS011;31127;52.078;4.370;2023-04-01T16:07:43;16.92;;;4.70;;
45388;SDS011;31127;52.078;4.370;2023-04-01T16:22:56;15.73;;;4.72;;
45388;SDS011;31127;52.078;4.370;2023-04-01T16:28:31;17.73;;;4.65;;
45388;SDS011;31127;52.078;4.370;2023-04-01T16:43:56;17.15;;;4.93;;
45388;SDS011;31127;52.078;4.370;2023-04-01T16:48:57;22.85;;;7.03;;
45388;SDS011;31127;52.078;4.370;2023-04-01T16:54:42;13.93;;;5.90;;
45388;SDS011;31127;52.078;4.370;2023-04-01T17:14:30;6.63;;;5.22;;
45388;SDS011;31127;52.078;4.370;2023-04-01T17:19:32;7.28;;;4.88;;
45388;SDS011;31127;52.078;4.370;2023-04-01T17:34:39;7.05;;;5.20;;
45388;SDS011;31127;52.078;4.370;2023-04-01T17:40:24;7.90;;;5.78;;
45388;SDS011;31127;52.078;4.370;2023-04-01T17:49:59;8.57;;;4.15;;
45388;SDS011;31127;52.078;4.370;2023-04-01T18:00:17;6.45;;;4.93;;
45388;SDS011;31127;52.078;4.370;2023-04-01T18:10:41;6.55;;;4.50;;
45388;SDS011;31127;52.078;4.370;2023-04-01T18:16:02;6.57;;;4.25;;
45388;SDS011;31127;52.078;4.370;2023-04-01T18:26:10;5.10;;;4.22;;
45388;SDS011;31127;52.078;4.370;2023-04-01T18:31:20;7.38;;;4.90;;
45388;SDS011;31127;52.078;4.370;2023-04-01T18:56:26;6.22;;;4.63;;
45388;SDS011;31127;52.078;4.370;2023-04-01T19:01:24;6.68;;;4.55;;
45388;SDS011;31127;52.078;4.370;2023-04-01T19:06:23;5.68;;;4.78;;
45388;SDS011;31127;52.078;4.370;2023-04-01T19:11:26;5.03;;;4.53;;
45388;SDS011;31127;52.078;4.370;2023-04-01T19:16:49;8.73;;;5.95;;
45388;SDS011;31127;52.078;4.370;2023-04-01T19:21:55;6.18;;;4.97;;
45388;SDS011;31127;52.078;4.370;2023-04-01T19:27:14;7.18;;;5.25;;
45388;SDS011;31127;52.078;4.370;2023-04-01T19:32:21;5.53;;;4.73;;
45388;SDS011;31127;52.078;4.370;2023-04-01T19:37:40;7.55;;;5.38;;
45388;SDS011;31127;52.078;4.370;2023-04-01T19:42:59;8.55;;;5.70;;
45388;SDS011;31127;52.078;4.370;2023-04-01T19:52:47;9.07;;;5.50;;
45388;SDS011;31127;52.078;4.370;2023-04-01T20:13:05;8.77;;;6.30;;
45388;SDS011;31127;52.078;4.370;2023-04-01T20:18:05;10.05;;;7.07;;
45388;SDS011;31127;52.078;4.370;2023-04-01T20:23:17;7.45;;;6.32;;
45388;SDS011;31127;52.078;4.370;2023-04-01T20:49:20;8.38;;;6.82;;
45388;SDS011;31127;52.078;4.370;2023-04-01T20:59:25;21.02;;;16.20;;
45388;SDS011;31127;52.078;4.370;2023-04-01T21:14:46;11.70;;;8.48;;
45388;SDS011;31127;52.078;4.370;2023-04-01T21:35:31;17.65;;;9.45;;
45388;SDS011;31127;52.078;4.370;2023-04-01T21:40:48;13.60;;;10.10;;
45388;SDS011;31127;52.078;4.370;2023-04-01T21:51:19;17.15;;;10.73;;
45388;SDS011;31127;52.078;4.370;2023-04-01T21:56:50;10.00;;;7.35;;
45388;SDS011;31127;52.078;4.370;2023-04-01T22:07:31;14.90;;;8.35;;
45388;SDS011;31127;52.078;4.370;2023-04-01T22:12:41;13.90;;;9.15;;
45388;SDS011;31127;52.078;4.370;2023-04-01T22:18:00;14.73;;;8.55;;
45388;SDS011;31127;52.078;4.370;2023-04-01T22:23:02;10.95;;;8.60;;
45388;SDS011;31127;52.078;4.370;2023-04-01T22:28:03;13.40;;;9.00;;
45388;SDS011;31127;52.078;4.370;2023-04-01T22:43:24;13.02;;;8.23;;
45388;SDS011;31127;52.078;4.370;2023-04-01T22:48:28;9.13;;;6.80;;
45388;SDS011;31127;52.078;4.370;2023-04-01T22:58:50;15.73;;;10.25;;
45388;SDS011;31127;52.078;4.370;2023-04-01T23:03:49;16.60;;;10.98;;
45388;SDS011;31127;52.078;4.370;2023-04-01T23:09:07;15.23;;;12.48;;
45388;SDS011;31127;52.078;4.370;2023-04-01T23:19:17;14.57;;;9.65;;
45388;SDS011;31127;52.078;4.370;2023-04-01T23:24:16;18.55;;;11.63;;
45388;SDS011;31127;52.078;4.370;2023-04-01T23:29:17;19.30;;;12.15;;
45388;SDS011;31127;52.078;4.370;2023-04-01T23:44:14;17.33;;;9.20;;
45388;SDS011;31127;52.078;4.370;2023-04-01T23:49:21;16.90;;;9.45;;
45388;SDS011;31127;52.078;4.370;2023-04-01T23:54:19;18.15;;;10.85;;
45388;SDS011;31127;52.078;4.370;2023-04-01T23:59:22;26.42;;;10.82;;
